sensor_id;sensor_type;location;lat;lon;timestamp;pressure;altitude;pressure_sealevel;temperature;humidity
69911;BME280;63555;49.920;17.868;2023-02-22T00:02:31;98684.69;;;4.28;81.44
69911;BME280;63555;49.920;17.868;2023-02-22T00:07:33;98687.47;;;4.07;81.34
69911;BME280;63555;49.920;17.868;2023-02-22T00:12:34;98684.94;;;3.89;81.68
69911;BME280;63555;49.920;17.868;2023-02-22T00:17:35;98688.38;;;3.72;81.73
69911;BME280;63555;49.920;17.868;2023-02-22T00:22:35;98689.22;;;3.55;81.75
69911;BME280;63555;49.920;17.868;2023-02-22T00:27:36;98682.78;;;3.43;82.28
69911;BME280;63555;49.920;17.868;2023-02-22T00:32:37;98675.88;;;3.42;82.55
69911;BME280;63555;49.920;17.868;2023-02-22T00:37:37;98683.72;;;3.42;82.96
69911;BME280;63555;49.920;17.868;2023-02-22T00:42:40;98676.16;;;3.55;83.29
69911;BME280;63555;49.920;17.868;2023-02-22T00:47:41;98678.56;;;3.60;83.03
69911;BME280;63555;49.920;17.868;2023-02-22T00:52:41;98688.97;;;3.60;83.02
69911;BME280;63555;49.920;17.868;2023-02-22T00:57:42;98691.06;;;3.70;83.42
69911;BME280;63555;49.920;17.868;2023-02-22T01:02:42;98692.06;;;3.85;83.72
69911;BME280;63555;49.920;17.868;2023-02-22T01:07:43;98694.75;;;4.01;83.33
69911;BME280;63555;49.920;17.868;2023-02-22T01:12:43;98695.84;;;4.14;83.59
69911;BME280;63555;49.920;17.868;2023-02-22T01:17:43;98687.47;;;4.25;83.31
69911;BME280;63555;49.920;17.868;2023-02-22T01:22:46;98700.97;;;4.33;83.11
69911;BME280;63555;49.920;17.868;2023-02-22T01:27:47;98699.75;;;4.40;83.07
69911;BME280;63555;49.920;17.868;2023-02-22T01:32:49;98694.97;;;4.48;83.09
69911;BME280;63555;49.920;17.868;2023-02-22T01:37:52;98693.03;;;4.52;83.18
69911;BME280;63555;49.920;17.868;2023-02-22T01:42:55;98694.56;;;4.56;83.63
69911;BME280;63555;49.920;17.868;2023-02-22T01:53:00;98681.97;;;4.64;83.77
69911;BME280;63555;49.920;17.868;2023-02-22T01:58:02;98687.69;;;4.70;83.28
69911;BME280;63555;49.920;17.868;2023-02-22T02:03:07;98685.94;;;4.71;83.69
69911;BME280;63555;49.920;17.868;2023-02-22T02:13:19;98676.84;;;4.78;83.77
69911;BME280;63555;49.920;17.868;2023-02-22T02:18:19;98682.66;;;4.83;83.78
69911;BME280;63555;49.920;17.868;2023-02-22T02:34:03;98681.31;;;4.92;83.60
69911;BME280;63555;49.920;17.868;2023-02-22T02:39:15;98679.47;;;4.94;84.10
69911;BME280;63555;49.920;17.868;2023-02-22T02:49:44;98688.84;;;4.98;84.11
69911;BME280;63555;49.920;17.868;2023-02-22T02:54:47;98691.38;;;4.99;84.52
69911;BME280;63555;49.920;17.868;2023-02-22T02:59:48;98693.81;;;5.02;84.32
69911;BME280;63555;49.920;17.868;2023-02-22T03:15:50;98701.41;;;5.07;84.40
69911;BME280;63555;49.920;17.868;2023-02-22T03:26:02;98707.72;;;5.03;83.81
69911;BME280;63555;49.920;17.868;2023-02-22T03:31:09;98702.81;;;4.97;84.30
69911;BME280;63555;49.920;17.868;2023-02-22T03:36:17;98704.84;;;4.92;84.43
69911;BME280;63555;49.920;17.868;2023-02-22T03:41:22;98698.84;;;4.90;84.73
69911;BME280;63555;49.920;17.868;2023-02-22T03:46:25;98701.47;;;4.90;84.65
69911;BME280;63555;49.920;17.868;2023-02-22T03:51:28;98701.47;;;4.90;84.61
69911;BME280;63555;49.920;17.868;2023-02-22T03:56:36;98705.09;;;4.87;84.73
69911;BME280;63555;49.920;17.868;2023-02-22T04:01:38;98705.84;;;4.89;84.19
69911;BME280;63555;49.920;17.868;2023-02-22T04:06:38;98704.16;;;4.88;84.27
69911;BME280;63555;49.920;17.868;2023-02-22T04:11:39;98711.31;;;4.85;84.49
69911;BME280;63555;49.920;17.868;2023-02-22T04:16:39;98714.09;;;4.82;84.38
69911;BME280;63555;49.920;17.868;2023-02-22T04:21:40;98713.41;;;4.78;84.40
69911;BME280;63555;49.920;17.868;2023-02-22T04:26:40;98709.19;;;4.75;84.09
69911;BME280;63555;49.920;17.868;2023-02-22T04:31:40;98707.44;;;4.76;84.86
69911;BME280;63555;49.920;17.868;2023-02-22T04:36:41;98708.34;;;4.75;84.74
69911;BME280;63555;49.920;17.868;2023-02-22T04:41:44;98710.03;;;4.76;84.32
69911;BME280;63555;49.920;17.868;2023-02-22T04:46:44;98710.88;;;4.76;83.93
69911;BME280;63555;49.920;17.868;2023-02-22T04:51:45;98705.66;;;4.76;83.85
69911;BME280;63555;49.920;17.868;2023-02-22T04:56:46;98703.97;;;4.75;84.38
69911;BME280;63555;49.920;17.868;2023-02-22T05:01:46;98706.66;;;4.74;84.48
69911;BME280;63555;49.920;17.868;2023-02-22T05:06:47;98709.44;;;4.71;84.10
69911;BME280;63555;49.920;17.868;2023-02-22T05:11:48;98706.06;;;4.69;84.14
69911;BME280;63555;49.920;17.868;2023-02-22T05:16:49;98707.84;;;4.68;84.36
69911;BME280;63555;49.920;17.868;2023-02-22T05:21:49;98704.38;;;4.68;84.25
69911;BME280;63555;49.920;17.868;2023-02-22T05:26:50;98709.69;;;4.66;84.29
69911;BME280;63555;49.920;17.868;2023-02-22T05:31:50;98717.75;;;4.62;84.42
69911;BME280;63555;49.920;17.868;2023-02-22T05:36:50;98716.22;;;4.58;84.55
69911;BME280;63555;49.920;17.868;2023-02-22T05:41:51;98721.69;;;4.53;83.94
69911;BME280;63555;49.920;17.868;2023-02-22T05:46:51;98726.91;;;4.53;84.32
69911;BME280;63555;49.920;17.868;2023-02-22T05:51:51;98725.06;;;4.55;84.89
69911;BME280;63555;49.920;17.868;2023-02-22T05:56:52;98734.59;;;4.56;84.00
69911;BME280;63555;49.920;17.868;2023-02-22T06:01:52;98733.59;;;4.59;84.36
69911;BME280;63555;49.920;17.868;2023-02-22T06:06:52;98748.25;;;4.61;84.63
69911;BME280;63555;49.920;17.868;2023-02-22T06:11:53;98752.31;;;4.67;84.71
69911;BME280;63555;49.920;17.868;2023-02-22T06:16:55;98750.22;;;4.73;84.71
69911;BME280;63555;49.920;17.868;2023-02-22T06:21:56;98760.34;;;4.79;84.75
69911;BME280;63555;49.920;17.868;2023-02-22T06:27:00;98756.56;;;4.85;84.16
69911;BME280;63555;49.920;17.868;2023-02-22T06:32:02;98762.66;;;4.86;84.50
69911;BME280;63555;49.920;17.868;2023-02-22T06:37:02;98764.00;;;4.93;84.59
69911;BME280;63555;49.920;17.868;2023-02-22T06:42:03;98765.63;;;4.95;84.31
69911;BME280;63555;49.920;17.868;2023-02-22T06:47:03;98775.75;;;5.01;84.60
69911;BME280;63555;49.920;17.868;2023-02-22T06:52:05;98772.31;;;5.17;84.52
69911;BME280;63555;49.920;17.868;2023-02-22T06:57:06;98784.59;;;5.32;84.44
69911;BME280;63555;49.920;17.868;2023-02-22T07:02:10;98785.78;;;5.58;83.86
69911;BME280;63555;49.920;17.868;2023-02-22T07:07:10;98784.44;;;5.82;84.11
69911;BME280;63555;49.920;17.868;2023-02-22T07:12:10;98783.50;;;5.99;84.04
69911;BME280;63555;49.920;17.868;2023-02-22T07:17:11;98791.38;;;6.15;83.25
69911;BME280;63555;49.920;17.868;2023-02-22T07:22:11;98785.78;;;6.21;82.94
69911;BME280;63555;49.920;17.868;2023-02-22T07:27:12;98790.84;;;6.24;82.09
69911;BME280;63555;49.920;17.868;2023-02-22T07:32:12;98779.81;;;6.33;82.73
69911;BME280;63555;49.920;17.868;2023-02-22T07:37:13;98788.22;;;6.54;82.37
69911;BME280;63555;49.920;17.868;2023-02-22T07:42:13;98787.69;;;6.77;82.51
69911;BME280;63555;49.920;17.868;2023-02-22T07:47:14;98780.72;;;7.06;81.75
69911;BME280;63555;49.920;17.868;2023-02-22T07:52:14;98784.19;;;7.21;81.67
69911;BME280;63555;49.920;17.868;2023-02-22T07:57:14;98779.75;;;7.35;80.85
69911;BME280;63555;49.920;17.868;2023-02-22T08:02:16;98787.31;;;7.54;81.18
69911;BME280;63555;49.920;17.868;2023-02-22T08:07:16;98776.78;;;7.68;81.09
69911;BME280;63555;49.920;17.868;2023-02-22T08:12:16;98786.41;;;7.96;79.92
69911;BME280;63555;49.920;17.868;2023-02-22T08:17:17;98778.94;;;8.30;79.90
69911;BME280;63555;49.920;17.868;2023-02-22T08:22:17;98781.19;;;8.76;79.18
69911;BME280;63555;49.920;17.868;2023-02-22T08:27:25;98784.97;;;9.10;78.09
69911;BME280;63555;49.920;17.868;2023-02-22T08:32:26;98781.16;;;9.26;77.00
69911;BME280;63555;49.920;17.868;2023-02-22T08:37:26;98777.00;;;9.48;76.49
69911;BME280;63555;49.920;17.868;2023-02-22T08:42:27;98777.47;;;9.78;76.17
69911;BME280;63555;49.920;17.868;2023-02-22T08:47:27;98780.41;;;10.10;75.57
69911;BME280;63555;49.920;17.868;2023-02-22T08:52:27;98777.00;;;10.21;74.23
69911;BME280;63555;49.920;17.868;2023-02-22T08:57:28;98776.84;;;10.35;73.61
69911;BME280;63555;49.920;17.868;2023-02-22T09:02:28;98772.84;;;10.30;73.17
69911;BME280;63555;49.920;17.868;2023-02-22T09:07:28;98777.44;;;10.39;73.11
69911;BME280;63555;49.920;17.868;2023-02-22T09:12:29;98770.19;;;10.42;72.28
69911;BME280;63555;49.920;17.868;2023-02-22T09:17:30;98785.38;;;10.74;71.81
69911;BME280;63555;49.920;17.868;2023-02-22T09:22:31;98773.34;;;11.38;71.53
69911;BME280;63555;49.920;17.868;2023-02-22T09:27:31;98777.38;;;11.87;69.55
69911;BME280;63555;49.920;17.868;2023-02-22T09:32:31;98774.00;;;12.39;68.89
69911;BME280;63555;49.920;17.868;2023-02-22T09:37:32;98767.22;;;13.70;66.06
69911;BME280;63555;49.920;17.868;2023-02-22T09:42:34;98768.19;;;14.67;63.42
69911;BME280;63555;49.920;17.868;2023-02-22T09:47:49;98755.00;;;15.41;61.21
69911;BME280;63555;49.920;17.868;2023-02-22T09:53:05;98752.81;;;15.91;60.62
69911;BME280;63555;49.920;17.868;2023-02-22T09:58:35;98756.63;;;16.07;59.34
69911;BME280;63555;49.920;17.868;2023-02-22T10:09:10;98763.16;;;14.45;60.18
69911;BME280;63555;49.920;17.868;2023-02-22T10:14:40;98757.75;;;13.77;60.75
69911;BME280;63555;49.920;17.868;2023-02-22T10:19:59;98748.69;;;13.30;61.71
69911;BME280;63555;49.920;17.868;2023-02-22T10:25:09;98746.63;;;13.13;61.43
69911;BME280;63555;49.920;17.868;2023-02-22T10:30:19;98738.38;;;12.85;60.50
69911;BME280;63555;49.920;17.868;2023-02-22T10:35:26;98746.16;;;12.24;61.17
69911;BME280;63555;49.920;17.868;2023-02-22T10:40:27;98748.91;;;11.91;61.42
69911;BME280;63555;49.920;17.868;2023-02-22T10:45:34;98742.44;;;11.72;61.49
69911;BME280;63555;49.920;17.868;2023-02-22T10:50:40;98739.72;;;11.52;61.39
69911;BME280;63555;49.920;17.868;2023-02-22T10:56:04;98742.63;;;11.37;61.10
69911;BME280;63555;49.920;17.868;2023-02-22T11:01:27;98738.41;;;11.46;61.22
69911;BME280;63555;49.920;17.868;2023-02-22T11:06:28;98733.84;;;11.48;61.63
69911;BME280;63555;49.920;17.868;2023-02-22T11:11:29;98728.69;;;11.35;61.02
69911;BME280;63555;49.920;17.868;2023-02-22T11:16:33;98725.81;;;11.38;61.81
69911;BME280;63555;49.920;17.868;2023-02-22T11:21:35;98724.91;;;11.83;61.17
69911;BME280;63555;49.920;17.868;2023-02-22T11:26:48;98725.53;;;12.39;59.74
69911;BME280;63555;49.920;17.868;2023-02-22T11:31:49;98716.22;;;12.86;59.43
69911;BME280;63555;49.920;17.868;2023-02-22T11:36:49;98710.63;;;13.90;58.12
69911;BME280;63555;49.920;17.868;2023-02-22T11:41:50;98697.72;;;14.92;56.15
69911;BME280;63555;49.920;17.868;2023-02-22T11:46:52;98696.47;;;15.51;54.32
69911;BME280;63555;49.920;17.868;2023-02-22T12:02:48;98702.53;;;14.30;54.25
69911;BME280;63555;49.920;17.868;2023-02-22T12:18:40;98700.94;;;12.90;56.49
69911;BME280;63555;49.920;17.868;2023-02-22T12:24:00;98695.44;;;12.82;56.86
69911;BME280;63555;49.920;17.868;2023-02-22T12:29:12;98696.50;;;12.69;57.29
69911;BME280;63555;49.920;17.868;2023-02-22T12:34:33;98693.16;;;12.98;56.26
69911;BME280;63555;49.920;17.868;2023-02-22T12:39:45;98694.47;;;13.34;55.64
69911;BME280;63555;49.920;17.868;2023-02-22T12:44:54;98679.59;;;13.52;55.03
69911;BME280;63555;49.920;17.868;2023-02-22T12:50:05;98668.16;;;13.52;55.24
69911;BME280;63555;49.920;17.868;2023-02-22T13:00:38;98664.41;;;13.64;55.08
69911;BME280;63555;49.920;17.868;2023-02-22T13:05:40;98671.41;;;13.75;55.27
69911;BME280;63555;49.920;17.868;2023-02-22T13:21:20;98656.59;;;13.53;55.16
69911;BME280;63555;49.920;17.868;2023-02-22T13:52:40;98660.97;;;12.41;57.42
69911;BME280;63555;49.920;17.868;2023-02-22T13:57:46;98659.56;;;12.37;57.91
69911;BME280;63555;49.920;17.868;2023-02-22T14:03:26;98660.53;;;12.36;57.98
69911;BME280;63555;49.920;17.868;2023-02-22T14:13:20;98662.66;;;11.90;58.86
69911;BME280;63555;49.920;17.868;2023-02-22T14:18:21;98663.44;;;11.69;59.15
69911;BME280;63555;49.920;17.868;2023-02-22T14:23:42;98664.34;;;11.47;59.38
69911;BME280;63555;49.920;17.868;2023-02-22T14:28:55;98663.28;;;11.16;59.84
69911;BME280;63555;49.920;17.868;2023-02-22T14:39:11;98657.94;;;10.73;61.04
69911;BME280;63555;49.920;17.868;2023-02-22T14:44:15;98655.16;;;10.64;61.01
69911;BME280;63555;49.920;17.868;2023-02-22T14:49:21;98653.13;;;10.56;60.97
69911;BME280;63555;49.920;17.868;2023-02-22T15:00:23;98651.25;;;10.23;61.24
69911;BME280;63555;49.920;17.868;2023-02-22T15:05:35;98653.44;;;10.05;61.74
69911;BME280;63555;49.920;17.868;2023-02-22T15:15:47;98650.66;;;9.61;62.38
69911;BME280;63555;49.920;17.868;2023-02-22T15:20:50;98653.06;;;9.27;63.20
69911;BME280;63555;49.920;17.868;2023-02-22T15:25:55;98647.88;;;9.02;63.73
69911;BME280;63555;49.920;17.868;2023-02-22T15:31:24;98651.91;;;8.82;64.55
69911;BME280;63555;49.920;17.868;2023-02-22T15:36:27;98653.72;;;8.69;64.51
69911;BME280;63555;49.920;17.868;2023-02-22T15:41:31;98654.53;;;8.56;64.72
69911;BME280;63555;49.920;17.868;2023-02-22T15:46:33;98647.94;;;8.38;65.10
69911;BME280;63555;49.920;17.868;2023-02-22T15:51:34;98652.81;;;8.17;65.41
69911;BME280;63555;49.920;17.868;2023-02-22T15:56:36;98656.78;;;7.97;65.95
69911;BME280;63555;49.920;17.868;2023-02-22T16:01:39;98660.81;;;7.76;66.20
69911;BME280;63555;49.920;17.868;2023-02-22T16:06:40;98663.69;;;7.59;66.98
69911;BME280;63555;49.920;17.868;2023-02-22T16:11:44;98666.66;;;7.40;66.90
69911;BME280;63555;49.920;17.868;2023-02-22T16:16:44;98665.78;;;7.27;67.48
69911;BME280;63555;49.920;17.868;2023-02-22T16:32:11;98678.75;;;7.01;67.96
69911;BME280;63555;49.920;17.868;2023-02-22T16:37:19;98671.63;;;6.89;68.66
69911;BME280;63555;49.920;17.868;2023-02-22T16:42:21;98669.75;;;6.77;69.35
69911;BME280;63555;49.920;17.868;2023-02-22T16:47:24;98676.78;;;6.62;69.53
69911;BME280;63555;49.920;17.868;2023-02-22T16:52:25;98674.06;;;6.50;69.55
69911;BME280;63555;49.920;17.868;2023-02-22T16:57:28;98675.56;;;6.39;69.29
69911;BME280;63555;49.920;17.868;2023-02-22T17:02:31;98684.44;;;6.37;69.98
69911;BME280;63555;49.920;17.868;2023-02-22T17:07:31;98683.69;;;6.35;70.60
69911;BME280;63555;49.920;17.868;2023-02-22T17:12:32;98679.38;;;6.34;70.27
69911;BME280;63555;49.920;17.868;2023-02-22T17:17:33;98685.56;;;6.33;70.66
69911;BME280;63555;49.920;17.868;2023-02-22T17:22:33;98687.41;;;6.31;71.12
69911;BME280;63555;49.920;17.868;2023-02-22T17:27:33;98691.06;;;6.28;71.08
69911;BME280;63555;49.920;17.868;2023-02-22T17:32:34;98692.94;;;6.26;71.18
69911;BME280;63555;49.920;17.868;2023-02-22T17:37:34;98693.19;;;6.22;71.52
69911;BME280;63555;49.920;17.868;2023-02-22T17:42:34;98689.09;;;6.18;71.18
69911;BME280;63555;49.920;17.868;2023-02-22T17:47:35;98690.47;;;6.09;71.83
69911;BME280;63555;49.920;17.868;2023-02-22T17:52:36;98695.38;;;5.99;71.44
69911;BME280;63555;49.920;17.868;2023-02-22T17:57:37;98688.09;;;5.89;71.85
69911;BME280;63555;49.920;17.868;2023-02-22T18:02:43;98696.75;;;5.75;72.39
69911;BME280;63555;49.920;17.868;2023-02-22T18:07:44;98695.50;;;5.66;72.54
69911;BME280;63555;49.920;17.868;2023-02-22T18:12:46;98692.47;;;5.58;72.75
69911;BME280;63555;49.920;17.868;2023-02-22T18:17:51;98697.28;;;5.50;73.54
69911;BME280;63555;49.920;17.868;2023-02-22T18:22:52;98697.53;;;5.46;73.29
69911;BME280;63555;49.920;17.868;2023-02-22T18:27:53;98699.41;;;5.43;73.78
69911;BME280;63555;49.920;17.868;2023-02-22T18:32:54;98698.66;;;5.41;73.78
69911;BME280;63555;49.920;17.868;2023-02-22T18:37:54;98706.41;;;5.43;73.73
69911;BME280;63555;49.920;17.868;2023-02-22T18:42:54;98709.88;;;5.43;73.72
69911;BME280;63555;49.920;17.868;2023-02-22T18:47:55;98708.19;;;5.42;73.75
69911;BME280;63555;49.920;17.868;2023-02-22T18:52:55;98708.25;;;5.41;74.02
69911;BME280;63555;49.920;17.868;2023-02-22T18:57:56;98708.19;;;5.42;74.53
69911;BME280;63555;49.920;17.868;2023-02-22T19:02:57;98704.72;;;5.42;74.56
69911;BME280;63555;49.920;17.868;2023-02-22T19:07:58;98709.28;;;5.38;74.19
69911;BME280;63555;49.920;17.868;2023-02-22T19:12:59;98704.22;;;5.35;74.48
69911;BME280;63555;49.920;17.868;2023-02-22T19:18:00;98706.06;;;5.33;74.92
69911;BME280;63555;49.920;17.868;2023-02-22T19:23:01;98702.88;;;5.28;74.80
69911;BME280;63555;49.920;17.868;2023-02-22T19:28:01;98697.97;;;5.22;75.14
69911;BME280;63555;49.920;17.868;2023-02-22T19:33:02;98703.09;;;5.08;74.96
69911;BME280;63555;49.920;17.868;2023-02-22T19:38:03;98694.91;;;4.98;75.50
69911;BME280;63555;49.920;17.868;2023-02-22T19:43:04;98699.78;;;4.89;75.82
69911;BME280;63555;49.920;17.868;2023-02-22T19:48:04;98708.28;;;4.76;75.44
69911;BME280;63555;49.920;17.868;2023-02-22T19:53:05;98708.91;;;4.64;75.64
69911;BME280;63555;49.920;17.868;2023-02-22T19:58:06;98714.53;;;4.57;76.12
69911;BME280;63555;49.920;17.868;2023-02-22T20:03:07;98714.00;;;4.50;76.34
69911;BME280;63555;49.920;17.868;2023-02-22T20:08:13;98708.19;;;4.45;76.16
69911;BME280;63555;49.920;17.868;2023-02-22T20:13:14;98707.50;;;4.41;76.11
69911;BME280;63555;49.920;17.868;2023-02-22T20:18:16;98704.38;;;4.35;76.22
69911;BME280;63555;49.920;17.868;2023-02-22T20:23:16;98713.25;;;4.31;76.53
69911;BME280;63555;49.920;17.868;2023-02-22T20:28:16;98710.94;;;4.25;76.79
69911;BME280;63555;49.920;17.868;2023-02-22T20:33:18;98715.72;;;4.16;76.78
69911;BME280;63555;49.920;17.868;2023-02-22T20:38:18;98716.03;;;4.10;77.13
69911;BME280;63555;49.920;17.868;2023-02-22T20:43:19;98710.34;;;4.02;76.97
69911;BME280;63555;49.920;17.868;2023-02-22T20:48:19;98707.88;;;3.99;76.84
69911;BME280;63555;49.920;17.868;2023-02-22T20:53:19;98706.50;;;3.92;76.86
69911;BME280;63555;49.920;17.868;2023-02-22T20:58:20;98703.56;;;3.81;76.85
69911;BME280;63555;49.920;17.868;2023-02-22T21:03:20;98708.78;;;3.64;76.59
69911;BME280;63555;49.920;17.868;2023-02-22T21:08:21;98701.88;;;3.44;77.09
69911;BME280;63555;49.920;17.868;2023-02-22T21:13:21;98703.59;;;3.26;76.83
69911;BME280;63555;49.920;17.868;2023-02-22T21:18:22;98701.84;;;3.08;77.64
69911;BME280;63555;49.920;17.868;2023-02-22T21:23:23;98697.22;;;2.96;77.56
69911;BME280;63555;49.920;17.868;2023-02-22T21:28:23;98706.50;;;2.82;78.08
69911;BME280;63555;49.920;17.868;2023-02-22T21:33:23;98698.53;;;2.67;77.97
69911;BME280;63555;49.920;17.868;2023-02-22T21:38:24;98696.72;;;2.48;78.31
69911;BME280;63555;49.920;17.868;2023-02-22T21:43:24;98694.91;;;2.30;78.01
69911;BME280;63555;49.920;17.868;2023-02-22T21:48:25;98693.03;;;2.13;78.02
69911;BME280;63555;49.920;17.868;2023-02-22T21:53:26;98695.31;;;2.01;78.63
69911;BME280;63555;49.920;17.868;2023-02-22T21:58:29;98689.84;;;1.86;78.45
69911;BME280;63555;49.920;17.868;2023-02-22T22:03:30;98687.75;;;1.74;77.78
69911;BME280;63555;49.920;17.868;2023-02-22T22:08:30;98692.81;;;1.55;78.20
69911;BME280;63555;49.920;17.868;2023-02-22T22:13:31;98691.50;;;1.45;78.44
69911;BME280;63555;49.920;17.868;2023-02-22T22:18:31;98685.00;;;1.35;78.75
69911;BME280;63555;49.920;17.868;2023-02-22T22:23:31;98691.44;;;1.25;78.52
69911;BME280;63555;49.920;17.868;2023-02-22T22:28:32;98696.81;;;1.20;78.69
69911;BME280;63555;49.920;17.868;2023-02-22T22:33:33;98687.47;;;1.16;78.73
69911;BME280;63555;49.920;17.868;2023-02-22T22:38:33;98690.34;;;1.09;79.06
69911;BME280;63555;49.920;17.868;2023-02-22T22:43:38;98692.41;;;1.01;78.62
69911;BME280;63555;49.920;17.868;2023-02-22T22:48:40;98693.47;;;0.95;78.98
69911;BME280;63555;49.920;17.868;2023-02-22T22:53:42;98686.84;;;0.86;78.72
69911;BME280;63555;49.920;17.868;2023-02-22T22:58:49;98690.03;;;0.71;78.86
69911;BME280;63555;49.920;17.868;2023-02-22T23:03:53;98692.97;;;0.62;79.18
69911;BME280;63555;49.920;17.868;2023-02-22T23:08:56;98683.66;;;0.56;79.36
69911;BME280;63555;49.920;17.868;2023-02-22T23:14:01;98690.81;;;0.50;79.42
69911;BME280;63555;49.920;17.868;2023-02-22T23:19:04;98690.13;;;0.45;79.51
69911;BME280;63555;49.920;17.868;2023-02-22T23:24:07;98678.28;;;0.38;79.86
69911;BME280;63555;49.920;17.868;2023-02-22T23:29:07;98684.66;;;0.29;79.81
69911;BME280;63555;49.920;17.868;2023-02-22T23:34:07;98686.78;;;0.18;79.64
69911;BME280;63555;49.920;17.868;2023-02-22T23:39:11;98686.25;;;0.08;79.82
69911;BME280;63555;49.920;17.868;2023-02-22T23:44:11;98682.00;;;0.06;80.04
69911;BME280;63555;49.920;17.868;2023-02-22T23:49:16;98685.56;;;0.03;79.80
69911;BME280;63555;49.920;17.868;2023-02-22T23:54:20;98676.16;;;0.01;80.14
69911;BME280;63555;49.920;17.868;2023-02-22T23:59:22;98682.41;;;-0.07;79.80
